Portada
METAR-TAF:

METAR-TAF

Aeropuertos :

Fillmore County Airport

Preston, Minnesota, Estados Unidos

latitud: 43-40-36N, longitud: 092-10-47W, altitud: 389 m

Observación

El informe se hizo hace 27 minutos, a las 01:55 UTC
Viento 6 kt del noroeste
Temperatura 17°C
Humedad 55%
Presión 1014 hPa
Visibilidad: 16.1 km
Cielo despejado

METAR: KFKA 290155Z AUTO 31006KT 10SM CLR 17/08 A2994 RMK AO2 T01720080

Hora: 21:22 (02:22 UTC)


TAF: falta

Observaciones y pronósticos meteorológicos de más de 4000 aeropuertos (mensajes METAR y TAF).

Los puntos amarillos y rojos representan las estaciones disponibles.

Ponga el ratón en el punto deseado para ver el nombre de la estación.

Haga clic para ver las observaciones y los pronósticos meteorológicos.

Para cambiar el mapa : haga clic en los botones verdes con una cruz de color negro para hacer un zoom, en el botón verde con un guión para alejar o en las flechas verdes para mapas adyacentes.


METAR-TAF: